createdAt,value
2023-04-20T00:01:23.978Z,6.20
2023-04-20T00:03:51.773Z,4.67
2023-04-20T00:06:18.703Z,5.13
2023-04-20T00:08:45.402Z,5.40
2023-04-20T00:11:12.320Z,5.00
2023-04-20T00:13:39.507Z,9.40
2023-04-20T00:16:06.406Z,4.43
2023-04-20T00:18:33.091Z,9.70
2023-04-20T00:20:59.764Z,5.60
2023-04-20T00:23:26.397Z,3.80
2023-04-20T00:25:54.906Z,5.27
2023-04-20T00:28:21.559Z,10.00
2023-04-20T00:30:48.375Z,5.27
2023-04-20T00:33:15.097Z,4.87
2023-04-20T00:35:42.242Z,6.30
2023-04-20T00:38:08.890Z,6.60
2023-04-20T00:40:35.614Z,9.23
2023-04-20T00:43:14.361Z,5.90
2023-04-20T00:45:41.388Z,7.10
2023-04-20T00:48:09.975Z,7.43
2023-04-20T00:50:38.091Z,7.07
2023-04-20T00:53:08.242Z,8.00
2023-04-20T00:55:37.698Z,5.30
2023-04-20T00:58:04.893Z,4.30
2023-04-20T01:00:33.753Z,6.23
2023-04-20T01:03:00.483Z,7.43
2023-04-20T01:05:27.317Z,5.10
2023-04-20T01:07:55.315Z,6.30
2023-04-20T01:10:21.950Z,5.70
2023-04-20T01:12:48.605Z,7.97
2023-04-20T01:15:15.649Z,7.50
2023-04-20T01:17:43.645Z,7.70
2023-04-20T01:20:12.683Z,6.20
2023-04-20T01:22:47.702Z,9.03
2023-04-20T01:25:14.876Z,5.77
2023-04-20T01:27:41.742Z,6.43
2023-04-20T01:30:08.981Z,6.00
2023-04-20T01:32:37.999Z,6.40
2023-04-20T01:35:05.623Z,7.13
2023-04-20T01:37:32.999Z,4.90
2023-04-20T01:40:03.775Z,7.00
2023-04-20T01:42:30.993Z,6.93
2023-04-20T01:44:58.024Z,9.17
2023-04-20T01:47:25.871Z,7.67
2023-04-20T01:49:52.594Z,6.03
2023-04-20T01:52:19.227Z,5.80
2023-04-20T01:54:48.473Z,10.70
2023-04-20T01:57:15.196Z,6.40
2023-04-20T01:59:41.880Z,6.27
2023-04-20T02:02:08.570Z,6.70
2023-04-20T02:04:35.416Z,8.60
2023-04-20T02:07:02.558Z,7.03
2023-04-20T02:09:29.366Z,6.23
2023-04-20T02:11:56.761Z,5.23
2023-04-20T02:14:23.394Z,6.20
2023-04-20T02:16:50.299Z,9.90
2023-04-20T02:19:17.193Z,5.80
2023-04-20T02:21:44.050Z,5.20
2023-04-20T02:24:10.888Z,7.07
2023-04-20T02:26:37.517Z,7.73
2023-04-20T02:29:04.180Z,7.87
2023-04-20T02:31:34.275Z,9.63
2023-04-20T02:34:01.183Z,6.77
2023-04-20T02:36:28.165Z,9.77
2023-04-20T02:38:54.803Z,5.40
2023-04-20T02:41:21.835Z,6.73
2023-04-20T02:43:49.333Z,6.30
2023-04-20T02:46:18.225Z,10.00
2023-04-20T02:48:45.140Z,5.83
2023-04-20T02:51:12.355Z,7.97
2023-04-20T02:53:43.259Z,6.07
2023-04-20T02:56:26.298Z,5.90
2023-04-20T02:58:55.560Z,7.77
2023-04-20T03:01:33.904Z,5.80
2023-04-20T03:04:08.242Z,9.97
2023-04-20T03:06:40.382Z,8.90
2023-04-20T03:09:09.955Z,6.67
2023-04-20T03:11:53.594Z,6.17
2023-04-20T03:14:36.429Z,6.90
2023-04-20T03:17:03.160Z,6.60
2023-04-20T03:19:29.865Z,5.50
2023-04-20T03:21:56.569Z,6.70
2023-04-20T03:24:23.985Z,12.37
2023-04-20T03:26:51.588Z,8.53
2023-04-20T03:29:24.673Z,6.80
2023-04-20T03:31:51.839Z,8.30
2023-04-20T03:34:18.857Z,7.93
2023-04-20T03:36:45.669Z,9.10
2023-04-20T03:39:12.307Z,8.00
2023-04-20T03:41:38.976Z,8.40
2023-04-20T03:44:06.918Z,7.47
2023-04-20T03:46:33.882Z,8.97
2023-04-20T03:49:00.557Z,8.20
2023-04-20T03:51:27.441Z,6.33
2023-04-20T03:53:54.078Z,7.07
2023-04-20T03:56:21.525Z,9.07
2023-04-20T03:58:48.965Z,8.80
2023-04-20T04:01:19.348Z,5.17
2023-04-20T04:03:48.528Z,6.80
2023-04-20T04:06:15.535Z,8.27
2023-04-20T04:08:42.217Z,7.17
2023-04-20T04:11:09.465Z,6.30
2023-04-20T04:13:36.270Z,4.87
2023-04-20T04:16:06.204Z,6.50
2023-04-20T04:18:32.875Z,8.07
2023-04-20T04:21:04.557Z,6.87
2023-04-20T04:23:31.360Z,7.37
2023-04-20T04:26:11.977Z,7.13
2023-04-20T04:28:42.498Z,6.27
2023-04-20T04:31:18.224Z,8.23
2023-04-20T04:33:46.291Z,7.00
2023-04-20T04:36:21.442Z,13.27
2023-04-20T04:38:48.963Z,10.27
2023-04-20T04:41:16.103Z,7.07
2023-04-20T04:43:45.567Z,9.10
2023-04-20T04:46:33.670Z,9.33
2023-04-20T04:49:04.265Z,9.47
2023-04-20T04:51:31.631Z,5.80
2023-04-20T04:53:58.291Z,8.20
2023-04-20T04:56:25.670Z,6.73
2023-04-20T04:58:52.388Z,15.87
2023-04-20T05:01:19.148Z,10.70
2023-04-20T05:03:46.357Z,8.43
2023-04-20T05:06:13.178Z,13.90
2023-04-20T05:08:40.165Z,8.57
2023-04-20T05:11:07.157Z,10.50
2023-04-20T05:13:33.787Z,13.70
2023-04-20T05:16:00.499Z,9.03
2023-04-20T05:18:27.174Z,9.17
2023-04-20T05:20:54.301Z,15.30
2023-04-20T05:23:21.316Z,10.40
2023-04-20T05:25:47.993Z,8.27
2023-04-20T05:28:14.669Z,10.53
2023-04-20T05:30:41.352Z,7.43
2023-04-20T05:33:08.449Z,10.40
2023-04-20T05:35:36.361Z,10.93
2023-04-20T05:38:06.121Z,9.70
2023-04-20T05:40:34.972Z,8.67
2023-04-20T05:43:01.693Z,10.70
2023-04-20T05:45:28.445Z,10.00
2023-04-20T05:47:56.567Z,10.37
2023-04-20T05:50:24.555Z,11.77
2023-04-20T05:52:52.220Z,11.70
2023-04-20T05:55:22.067Z,14.80
2023-04-20T05:57:51.648Z,10.53
2023-04-20T06:00:18.738Z,10.77
2023-04-20T06:02:45.680Z,10.07
2023-04-20T06:05:13.219Z,9.20
2023-04-20T06:07:40.366Z,13.33
2023-04-20T06:10:10.168Z,10.37
2023-04-20T06:12:37.135Z,11.47
2023-04-20T06:15:06.617Z,13.40
2023-04-20T06:17:36.075Z,9.23
2023-04-20T06:20:03.851Z,8.90
2023-04-20T06:22:30.560Z,8.90
2023-04-20T06:24:58.979Z,10.67
2023-04-20T06:27:25.928Z,8.80
2023-04-20T06:29:53.215Z,7.80
2023-04-20T06:32:20.121Z,11.40
2023-04-20T06:34:47.577Z,9.27
2023-04-20T06:37:14.469Z,8.70
2023-04-20T06:39:41.177Z,8.47
2023-04-20T06:42:08.533Z,7.13
2023-04-20T06:44:35.328Z,9.33
2023-04-20T06:47:02.104Z,10.27
2023-04-20T06:49:28.800Z,8.20
2023-04-20T06:51:56.096Z,8.10
2023-04-20T06:54:22.869Z,6.27
2023-04-20T06:56:50.449Z,9.80
2023-04-20T06:59:18.754Z,7.10
2023-04-20T07:01:45.724Z,7.53
2023-04-20T07:04:12.614Z,6.40
2023-04-20T07:06:39.406Z,7.10
2023-04-20T07:09:06.070Z,7.33
2023-04-20T07:11:32.790Z,7.90
2023-04-20T07:13:59.746Z,6.20
2023-04-20T07:16:26.503Z,7.17
2023-04-20T07:18:53.194Z,9.43
2023-04-20T07:21:19.842Z,8.13
2023-04-20T07:23:48.170Z,7.03
2023-04-20T07:26:15.022Z,7.67
2023-04-20T07:28:42.414Z,6.07
2023-04-20T07:31:09.068Z,5.67
2023-04-20T07:33:35.882Z,6.73
2023-04-20T07:36:02.973Z,5.93
2023-04-20T07:38:29.600Z,7.37
2023-04-20T07:40:56.263Z,6.03
2023-04-20T07:43:23.587Z,6.60
2023-04-20T07:45:50.901Z,5.93
2023-04-20T07:48:17.570Z,6.00
2023-04-20T07:50:45.580Z,11.50
2023-04-20T07:53:12.706Z,5.67
2023-04-20T07:55:39.376Z,4.53
2023-04-20T07:58:06.019Z,6.40
2023-04-20T08:00:32.678Z,5.93
2023-04-20T08:02:59.554Z,6.63
2023-04-20T08:05:27.187Z,5.23
2023-04-20T08:07:54.148Z,5.80
2023-04-20T08:10:21.213Z,5.40
2023-04-20T08:12:49.761Z,6.07
2023-04-20T08:15:17.745Z,5.33
2023-04-20T08:17:44.394Z,5.20
2023-04-20T08:20:11.245Z,5.57
2023-04-20T08:22:38.851Z,6.47
2023-04-20T08:25:05.889Z,6.40
2023-04-20T08:27:32.636Z,7.77
2023-04-20T08:29:59.327Z,8.50
2023-04-20T08:32:26.487Z,5.17
2023-04-20T08:34:54.029Z,5.83
2023-04-20T08:37:21.017Z,5.87
2023-04-20T08:39:47.738Z,7.00
2023-04-20T08:42:15.819Z,6.50
2023-04-20T08:44:42.865Z,5.70
2023-04-20T08:47:11.879Z,6.30
2023-04-20T08:49:39.638Z,6.53
2023-04-20T08:52:10.667Z,4.87
2023-04-20T08:54:55.208Z,5.90
2023-04-20T08:57:23.055Z,3.97
2023-04-20T08:59:49.721Z,4.87
2023-04-20T09:02:16.462Z,5.60
2023-04-20T09:04:43.411Z,4.90
2023-04-20T09:07:20.890Z,3.87
2023-04-20T09:09:58.321Z,5.37
2023-04-20T09:12:25.640Z,4.47
2023-04-20T09:14:52.738Z,5.73
2023-04-20T09:17:36.041Z,5.00
2023-04-20T09:20:05.169Z,4.80
2023-04-20T09:22:36.712Z,4.97
2023-04-20T09:25:16.594Z,4.63
2023-04-20T09:27:43.278Z,4.17
2023-04-20T09:30:11.469Z,4.97
2023-04-20T09:32:38.138Z,4.37
2023-04-20T09:35:06.694Z,3.83
2023-04-20T09:37:33.328Z,2.40
2023-04-20T09:40:01.195Z,2.70
2023-04-20T09:42:28.799Z,2.47
2023-04-20T09:44:57.565Z,1.63
2023-04-20T09:47:26.585Z,2.10
2023-04-20T09:49:54.270Z,1.30
2023-04-20T09:52:21.395Z,1.47
2023-04-20T09:54:48.701Z,2.10
2023-04-20T09:57:15.598Z,1.27
2023-04-20T09:59:43.874Z,1.13
2023-04-20T10:02:13.078Z,0.80
2023-04-20T10:04:56.675Z,0.97
2023-04-20T10:07:28.409Z,1.27
2023-04-20T10:10:08.445Z,1.33
2023-04-20T10:12:50.037Z,1.23
2023-04-20T10:15:17.231Z,0.67
2023-04-20T10:17:44.601Z,0.60
2023-04-20T10:20:23.371Z,0.90
2023-04-20T10:22:52.383Z,0.60
2023-04-20T10:25:28.392Z,0.50
2023-04-20T10:27:59.864Z,1.10
2023-04-20T10:30:28.243Z,0.40
2023-04-20T10:33:05.560Z,0.80
2023-04-20T10:35:45.914Z,1.57
2023-04-20T10:38:12.843Z,0.90
2023-04-20T10:40:39.716Z,0.50
2023-04-20T10:43:21.891Z,3.97
2023-04-20T10:45:50.140Z,0.90
2023-04-20T10:48:18.242Z,0.60
2023-04-20T10:50:45.426Z,0.90
2023-04-20T10:53:22.807Z,1.10
2023-04-20T10:55:59.941Z,0.60
2023-04-20T10:58:26.708Z,0.90
2023-04-20T11:01:01.380Z,0.70
2023-04-20T11:03:32.700Z,1.00
2023-04-20T11:06:01.658Z,0.90
2023-04-20T11:08:41.700Z,1.27
2023-04-20T11:11:27.427Z,2.90
2023-04-20T11:14:11.203Z,1.00
2023-04-20T11:16:50.525Z,3.33
2023-04-20T11:19:44.665Z,6.30
2023-04-20T11:22:21.562Z,1.20
2023-04-20T11:24:48.221Z,1.37
2023-04-20T11:27:22.211Z,2.17
2023-04-20T11:29:58.113Z,2.33
2023-04-20T11:32:25.583Z,1.83
2023-04-20T11:35:07.095Z,2.07
2023-04-20T11:37:46.862Z,2.60
2023-04-20T11:40:14.965Z,3.63
2023-04-20T11:42:41.778Z,3.40
2023-04-20T11:45:08.859Z,3.70
2023-04-20T11:47:35.565Z,4.40
2023-04-20T11:50:02.710Z,4.17
2023-04-20T11:52:29.386Z,4.83
2023-04-20T11:54:56.331Z,3.33
2023-04-20T11:57:23.872Z,3.40
2023-04-20T11:59:50.666Z,3.67
2023-04-20T12:02:17.494Z,4.07
2023-04-20T12:04:44.374Z,4.90
2023-04-20T12:07:11.173Z,3.80
2023-04-20T12:09:38.404Z,5.70
2023-04-20T12:12:06.047Z,4.27
2023-04-20T12:14:35.964Z,8.70
2023-04-20T12:17:04.283Z,4.23
2023-04-20T12:19:31.734Z,6.50
2023-04-20T12:21:58.479Z,6.20
2023-04-20T12:24:25.463Z,6.20
2023-04-20T12:26:52.365Z,7.37
2023-04-20T12:29:19.370Z,6.57
2023-04-20T12:31:46.479Z,6.93
2023-04-20T12:34:13.228Z,5.47
2023-04-20T12:36:40.528Z,7.30
2023-04-20T12:39:07.513Z,5.87
2023-04-20T12:41:34.881Z,5.50
2023-04-20T12:44:15.977Z,9.37
2023-04-20T12:46:42.779Z,9.00
2023-04-20T12:49:09.689Z,7.50
2023-04-20T12:51:36.387Z,6.60
2023-04-20T12:54:03.147Z,8.10
2023-04-20T12:56:30.020Z,5.60
2023-04-20T12:58:56.673Z,17.63
2023-04-20T13:01:23.993Z,7.20
2023-04-20T13:03:52.166Z,5.43
2023-04-20T13:06:19.120Z,6.47
2023-04-20T13:08:46.422Z,7.00
2023-04-20T13:11:15.404Z,9.00
2023-04-20T13:13:42.791Z,4.63
2023-04-20T13:16:09.710Z,9.60
2023-04-20T13:18:36.619Z,7.67
2023-04-20T13:21:03.488Z,6.50
2023-04-20T13:23:30.153Z,6.60
2023-04-20T13:25:59.086Z,7.33
2023-04-20T13:28:26.026Z,8.00
2023-04-20T13:30:55.653Z,5.47
2023-04-20T13:33:22.310Z,5.70
2023-04-20T13:35:49.071Z,8.10
2023-04-20T13:38:16.004Z,5.90
2023-04-20T13:40:44.398Z,6.30
2023-04-20T13:43:11.848Z,6.60
2023-04-20T13:45:38.999Z,7.13
2023-04-20T13:48:05.881Z,7.20
2023-04-20T13:50:32.596Z,5.07
2023-04-20T13:52:59.242Z,7.40
2023-04-20T13:55:27.216Z,7.00
2023-04-20T13:57:53.925Z,8.70
2023-04-20T14:00:20.724Z,8.10
2023-04-20T14:02:47.695Z,7.10
2023-04-20T14:05:14.535Z,6.80
2023-04-20T14:07:41.182Z,8.60
2023-04-20T14:10:08.636Z,6.90
2023-04-20T14:12:35.431Z,7.67
2023-04-20T14:15:02.334Z,7.60
2023-04-20T14:17:29.017Z,5.90
2023-04-20T14:19:56.006Z,8.60
2023-04-20T14:22:22.679Z,7.50
2023-04-20T14:24:49.431Z,7.50
2023-04-20T14:27:16.141Z,7.87
2023-04-20T14:29:42.900Z,7.50
2023-04-20T14:32:09.607Z,7.30
2023-04-20T14:34:36.280Z,6.93
2023-04-20T14:37:02.967Z,9.23
2023-04-20T14:39:29.628Z,7.50
2023-04-20T14:41:56.279Z,6.23
2023-04-20T14:44:22.979Z,7.70
2023-04-20T14:46:49.739Z,5.63
2023-04-20T14:49:16.676Z,6.13
2023-04-20T14:51:43.376Z,5.70
2023-04-20T14:54:10.047Z,6.37
2023-04-20T14:56:36.693Z,7.80
2023-04-20T14:59:03.470Z,7.60
2023-04-20T15:01:30.449Z,7.33
2023-04-20T15:03:57.373Z,6.90
2023-04-20T15:06:24.248Z,5.83
2023-04-20T15:08:54.463Z,6.87
2023-04-20T15:11:21.162Z,9.27
2023-04-20T15:13:49.382Z,6.60
2023-04-20T15:16:16.134Z,6.80
2023-04-20T15:18:43.197Z,5.60
2023-04-20T15:21:10.688Z,7.57
2023-04-20T15:23:37.425Z,4.83
2023-04-20T15:26:04.288Z,5.63
2023-04-20T15:28:30.923Z,5.23
2023-04-20T15:30:57.647Z,5.03
2023-04-20T15:33:24.939Z,6.27
2023-04-20T15:35:51.624Z,5.57
2023-04-20T15:38:18.927Z,4.03
2023-04-20T15:40:46.633Z,5.73
2023-04-20T15:43:13.293Z,4.57
2023-04-20T15:45:40.807Z,4.97
2023-04-20T15:48:08.947Z,4.43
2023-04-20T15:50:36.068Z,5.33
2023-04-20T15:53:03.046Z,7.67
2023-04-20T15:55:34.254Z,6.80
2023-04-20T15:58:01.157Z,5.47
2023-04-20T16:00:27.859Z,5.10
2023-04-20T16:02:55.011Z,4.53
2023-04-20T16:05:22.794Z,6.33
2023-04-20T16:07:50.164Z,5.37
2023-04-20T16:10:16.955Z,4.70
2023-04-20T16:12:43.630Z,5.67
2023-04-20T16:15:10.425Z,6.43
2023-04-20T16:17:37.172Z,5.27
2023-04-20T16:20:05.549Z,6.20
2023-04-20T16:22:32.216Z,5.40
2023-04-20T16:24:58.928Z,6.93
2023-04-20T16:27:27.420Z,5.83
2023-04-20T16:29:54.142Z,5.60
2023-04-20T16:32:21.173Z,6.00
2023-04-20T16:34:48.294Z,5.43
2023-04-20T16:37:15.014Z,6.00
2023-04-20T16:39:42.363Z,5.70
2023-04-20T16:42:09.148Z,6.80
2023-04-20T16:44:35.805Z,6.70
2023-04-20T16:47:02.604Z,4.80
2023-04-20T16:49:29.445Z,5.70
2023-04-20T16:51:57.508Z,5.50
2023-04-20T16:54:24.844Z,5.40
2023-04-20T16:56:52.350Z,5.63
2023-04-20T16:59:19.114Z,6.30
2023-04-20T17:01:45.878Z,8.93
2023-04-20T17:04:13.055Z,6.90
2023-04-20T17:06:39.750Z,7.77
2023-04-20T17:09:06.722Z,5.70
2023-04-20T17:11:37.995Z,8.63
2023-04-20T17:14:04.722Z,6.83
2023-04-20T17:16:31.463Z,8.70
2023-04-20T17:18:58.805Z,11.03
2023-04-20T17:21:27.577Z,8.93
2023-04-20T17:23:54.863Z,7.80
2023-04-20T17:26:21.746Z,8.57
2023-04-20T17:28:49.467Z,9.50
2023-04-20T17:31:16.714Z,8.10
2023-04-20T17:33:44.825Z,8.20
2023-04-20T17:36:11.550Z,10.23
2023-04-20T17:38:38.629Z,10.37
2023-04-20T17:41:05.416Z,8.83
2023-04-20T17:43:32.133Z,11.10
2023-04-20T17:45:58.961Z,12.30
2023-04-20T17:48:25.813Z,9.17
2023-04-20T17:50:52.613Z,10.10
2023-04-20T17:53:19.583Z,11.70
2023-04-20T17:55:46.281Z,13.23
2023-04-20T17:58:13.066Z,10.93
2023-04-20T18:00:40.395Z,11.63
2023-04-20T18:03:07.125Z,10.33
2023-04-20T18:05:33.987Z,11.87
2023-04-20T18:08:00.806Z,10.50
2023-04-20T18:10:28.037Z,11.03
2023-04-20T18:12:55.378Z,10.30
2023-04-20T18:15:22.074Z,11.50
2023-04-20T18:17:49.409Z,12.27
2023-04-20T18:20:16.525Z,10.37
2023-04-20T18:22:43.519Z,9.70
2023-04-20T18:25:10.396Z,10.00
2023-04-20T18:27:37.636Z,11.37
2023-04-20T18:30:04.891Z,10.50
2023-04-20T18:32:32.878Z,11.27
2023-04-20T18:35:00.195Z,11.90
2023-04-20T18:37:27.378Z,9.90
2023-04-20T18:39:54.706Z,9.83
2023-04-20T18:42:21.438Z,9.67
2023-04-20T18:44:50.915Z,9.53
2023-04-20T18:47:18.840Z,11.03
2023-04-20T18:49:45.526Z,10.43
2023-04-20T18:52:13.605Z,11.83
2023-04-20T18:54:40.579Z,11.43
2023-04-20T18:57:07.701Z,10.87
2023-04-20T18:59:34.433Z,11.70
2023-04-20T19:02:01.274Z,16.23
2023-04-20T19:04:29.601Z,11.20
2023-04-20T19:06:56.329Z,11.90
2023-04-20T19:09:23.009Z,12.40
2023-04-20T19:11:50.771Z,10.07
2023-04-20T19:14:19.148Z,10.67
2023-04-20T19:16:45.999Z,10.17
2023-04-20T19:19:12.767Z,11.07
2023-04-20T19:21:39.742Z,11.03
2023-04-20T19:24:06.701Z,10.40
2023-04-20T19:26:33.331Z,12.50
2023-04-20T19:29:00.278Z,13.90
2023-04-20T19:31:31.913Z,12.30
2023-04-20T19:33:58.638Z,9.97
2023-04-20T19:36:25.628Z,12.93
2023-04-20T19:38:52.518Z,11.70
2023-04-20T19:41:19.277Z,14.73
2023-04-20T19:43:45.906Z,15.23
2023-04-20T19:46:15.172Z,11.80
2023-04-20T19:48:43.548Z,13.87
2023-04-20T19:51:11.533Z,11.67
2023-04-20T19:53:38.605Z,13.00
2023-04-20T19:56:06.510Z,14.57
2023-04-20T19:58:33.467Z,13.13
2023-04-20T20:01:00.273Z,11.33
2023-04-20T20:03:27.576Z,11.50
2023-04-20T20:05:54.378Z,13.67
2023-04-20T20:08:21.272Z,12.83
2023-04-20T20:10:47.994Z,11.27
2023-04-20T20:13:14.879Z,13.20
2023-04-20T20:15:41.784Z,13.07
2023-04-20T20:18:10.364Z,11.07
2023-04-20T20:20:37.739Z,12.20
2023-04-20T20:23:04.396Z,12.70
2023-04-20T20:25:33.358Z,11.93
2023-04-20T20:28:01.848Z,12.13
2023-04-20T20:30:29.028Z,15.60
2023-04-20T20:32:58.657Z,12.97
2023-04-20T20:35:31.466Z,12.57
2023-04-20T20:37:59.863Z,16.33
2023-04-20T20:40:26.580Z,13.70
2023-04-20T20:42:54.220Z,17.17
2023-04-20T20:45:21.763Z,13.00
2023-04-20T20:47:48.579Z,16.40
2023-04-20T20:50:16.531Z,19.10
2023-04-20T20:52:43.623Z,18.20
2023-04-20T20:55:11.271Z,18.47
2023-04-20T20:57:38.150Z,17.13
2023-04-20T21:00:09.888Z,18.20
2023-04-20T21:02:37.205Z,19.30
2023-04-20T21:05:05.202Z,18.67
2023-04-20T21:07:31.916Z,22.53
2023-04-20T21:09:58.571Z,20.37
2023-04-20T21:12:25.319Z,21.80
2023-04-20T21:14:52.198Z,22.23
2023-04-20T21:17:19.396Z,19.20
2023-04-20T21:19:46.548Z,17.50
2023-04-20T21:22:13.247Z,19.20
2023-04-20T21:24:40.476Z,18.40
2023-04-20T21:27:07.239Z,21.70
2023-04-20T21:29:33.928Z,22.00
2023-04-20T21:32:00.630Z,21.93
2023-04-20T21:34:27.692Z,19.70
2023-04-20T21:36:54.555Z,19.93
2023-04-20T21:39:21.359Z,21.10
2023-04-20T21:41:48.076Z,20.20
2023-04-20T21:44:14.763Z,24.43
2023-04-20T21:46:41.430Z,22.53
2023-04-20T21:49:08.272Z,20.53
2023-04-20T21:51:34.896Z,23.57
2023-04-20T21:54:01.592Z,24.37
2023-04-20T21:56:28.296Z,21.87
2023-04-20T21:58:55.165Z,22.43
2023-04-20T22:01:21.818Z,21.73
2023-04-20T22:03:48.677Z,22.70
2023-04-20T22:06:15.532Z,21.40
2023-04-20T22:08:42.499Z,23.90
2023-04-20T22:11:09.513Z,27.67
2023-04-20T22:13:36.795Z,27.67
2023-04-20T22:16:03.904Z,25.57
2023-04-20T22:18:30.736Z,27.27
2023-04-20T22:20:57.576Z,25.60
2023-04-20T22:23:24.309Z,28.97
2023-04-20T22:25:50.983Z,26.17
2023-04-20T22:28:18.128Z,25.57
2023-04-20T22:30:44.799Z,27.53
2023-04-20T22:33:11.490Z,28.97
2023-04-20T22:35:38.173Z,27.90
2023-04-20T22:38:04.960Z,26.67
2023-04-20T22:40:31.664Z,25.87
2023-04-20T22:42:58.311Z,28.97
2023-04-20T22:45:25.118Z,27.40
2023-04-20T22:47:51.813Z,27.30
2023-04-20T22:50:18.584Z,27.23
2023-04-20T22:52:45.978Z,30.50
2023-04-20T22:55:13.930Z,24.50
2023-04-20T22:57:40.588Z,31.13
2023-04-20T23:00:10.482Z,30.47
2023-04-20T23:02:37.695Z,32.47
2023-04-20T23:05:05.627Z,33.00
2023-04-20T23:07:33.306Z,27.33
2023-04-20T23:10:00.375Z,29.23
2023-04-20T23:12:29.249Z,33.27
2023-04-20T23:14:56.489Z,31.60
2023-04-20T23:17:23.366Z,31.43
2023-04-20T23:19:50.921Z,30.93
2023-04-20T23:22:17.991Z,31.63
2023-04-20T23:24:44.775Z,33.93
2023-04-20T23:27:11.413Z,34.20
2023-04-20T23:29:38.101Z,38.47
2023-04-20T23:32:05.085Z,32.93
2023-04-20T23:34:31.812Z,35.40
2023-04-20T23:36:58.645Z,38.13
2023-04-20T23:39:25.390Z,34.03
2023-04-20T23:41:52.068Z,35.70
2023-04-20T23:44:18.837Z,31.77
2023-04-20T23:46:46.265Z,36.10
2023-04-20T23:49:12.961Z,37.17
2023-04-20T23:51:39.600Z,36.40
2023-04-20T23:54:06.255Z,35.03
2023-04-20T23:56:32.880Z,35.20
2023-04-20T23:58:59.591Z,36.67
